SpazioLink.com il tuo mini portale

Terremoti in Italia, posizione geografica

Spaziolink il MiniPortale

Home Sfondi Cerca SuperEnalotto Posizione navi Terremoti Directory Video Forum Giochi Meteo Gifs Software
Lista dei terremoti in Italia in tempo reale dopo l'elaborazione dei valori rilevati dai sensori dislocati nelle zone interessate, comprendenti gli eventi sismici di elevata magnitudo sull'intero globo terrącqueo, per visualizzare la posizione dell'epicentro su Google Maps cliccare sul nome del luogo evidenziato in blu.
DATA ORA MAG ≥ 2 ZONA REGIONE LAT LONG PROF km
21/11/2018 11:54:40 ML 2.2 5 km a sud-ovest di Costacciaro (PG) Umbria 43.32 12.68  10.1
21/11/2018 04:27:45 ML 2.1 3 km a nord-ovest di Ussita (MC) Marche 42.96 13.12   6.2
21/11/2018 04:27:44 ML 2.2 3 km a nord-ovest di Ussita (MC) Marche 42.97 13.12   8.7
20/11/2018 19:53:28 ML 2.3 10 km a sud-est di Bronte (CT) Sicilia 37.75 14.93  10.7
20/11/2018 17:50:18 ML 3.0 2 km a est di Albanella (SA) ----- 40.48 15.14   8.7
20/11/2018 17:42:11 ML 2.0 10 km nord-est Biancavilla (CT) Sicilia 37.73 14.92  27.6
20/11/2018 11:47:30 ML 2.6 8 km nord-est Adrano (CT) Sicilia 37.72 14.89  19.7
20/11/2018 10:58:06 ML 2.4 8 km nord-est Biancavilla (CT) Sicilia 37.71 14.91  25.7
20/11/2018 09:56:01 ML 2.7 7 km nord-est Adrano (CT) Sicilia 37.71 14.88  21.8
20/11/2018 08:57:15 ML 3.2 Slovenia (SLOVENIA) ----- 45.94 14.18   5.0
20/11/2018 08:30:38 ML 2.1 8 km nord-est Adrano (CT) Sicilia 37.72 14.88  23.5
20/11/2018 08:21:25 ML 2.1 9 km nord-est Adrano (CT) Sicilia 37.72 14.90  25.4
20/11/2018 07:37:54 ML 2.3 6 km a nord di Adrano (CT) Sicilia 37.72 14.85  31.1
20/11/2018 06:53:42 ML 3.1 6 km nord-est Adrano (CT) Sicilia 37.71 14.87  21.8
20/11/2018 06:44:40 ML 2.4 8 km nord-est Adrano (CT) Sicilia 37.71 14.90  25.4
20/11/2018 06:43:58 ML 2.3 9 km nord-est Biancavilla (CT) Sicilia 37.71 14.92  24.2
20/11/2018 06:40:27 ML 2.2 7 km nord-est Biancavilla (CT) Sicilia 37.70 14.91  28.1
20/11/2018 06:39:51 ML 2.0 10 km nord-est Biancavilla (CT) Sicilia 37.73 14.92  27.9
20/11/2018 06:38:43 ML 2.7 7 km nord-est Adrano (CT) Sicilia 37.71 14.89  20.5
20/11/2018 06:36:19 ML 2.0 7 km nord-est Adrano (CT) Sicilia 37.71 14.90  29.1
20/11/2018 06:29:27 ML 2.3 8 km nord-est Adrano (CT) Sicilia 37.72 14.87  29.0
20/11/2018 06:21:37 ML 2.0 8 km nord-est Adrano (CT) Sicilia 37.71 14.90  29.8
20/11/2018 06:14:16 ML 2.6 10 km nord-est Biancavilla (CT) Sicilia 37.72 14.92  17.6
20/11/2018 06:13:38 ML 2.3 6 km a sud-est di Bronte (CT) Sicilia 37.73 14.86  31.1
20/11/2018 06:09:19 ML 2.2 9 km nord-est Adrano (CT) Sicilia 37.72 14.90  29.6
20/11/2018 06:06:34 ML 3.5 5 km nord-est Biancavilla (CT) Sicilia 37.68 14.91  21.7
20/11/2018 06:00:30 ML 2.3 9 km a nord di Ragalna (CT) Sicilia 37.71 14.94  24.4
20/11/2018 05:59:11 ML 2.4 8 km a sud-est di Bronte (CT) Sicilia 37.73 14.89  33.2
20/11/2018 05:55:19 ML 2.3 10 km nord-est Adrano (CT) Sicilia 37.72 14.91  29.9
20/11/2018 05:28:08 ML 2.2 5 km a est di Colle di Val d'Elsa (SI) Toscana 43.43 11.18   8.1
19/11/2018 15:23:45 ML 2.8 3 km a ovest di Pulfero (UD) Friuli Venezia Giulia 46.16 13.45  10.1
19/11/2018 15:22:44 ML 2.3 4 km a ovest di Pulfero (UD) Friuli Venezia Giulia 46.17 13.43   8.1
19/11/2018 14:05:57 mb 5.2 Mar Ionio Meridionale (MARE) ----- 37.20 20.63  19.5
19/11/2018 03:52:36 ML 2.5 2 km a ovest di Accumoli (RI) Lazio 42.70 13.23  10.2
18/11/2018 22:20:45 ML 2.4 Costa Calabra sud-occidentale (Catanzaro, Vibo Valentia, Reggio di Calabria) Calabria 38.38 15.75  14.1
18/11/2018 21:25:46 Mwp 6.6 Fiji Islands region (Sea: Fiji) ----- -17.96 -178.78 536.7
18/11/2018 18:03:39 ML 2.4 5 km a est di Accumoli (RI) Lazio 42.71 13.31  11.5
18/11/2018 15:22:24 ML 3.7 Libya (Sea) ----- 34.65 13.29   8.6
18/11/2018 13:48:46 Mw 4.0 3 km a est di Santarcangelo di Romagna (RN) Emilia Romagna 44.05 12.49  36.8
18/11/2018 08:39:47 ML 2.0 Costa Siracusana (Siracusa) Sicilia 36.64 15.36  33.9
18/11/2018 04:55:48 ML 2.5 Mar Ionio Meridionale (MARE) ----- 37.56 16.35  19.9
17/11/2018 20:26:02 ML 2.3 Costa Siracusana (Siracusa) Sicilia 37.26 15.47  26.4
17/11/2018 20:25:28 ML 2.8 Tirreno Meridionale (MARE) ----- 39.18 15.06 299.9
17/11/2018 12:16:19 ML 2.2 5 km a nord-ovest di Volterra (PI) Toscana 43.42 10.81  10.4
17/11/2018 11:50:35 ML 3.1 4 km a sud di Santo Stefano di Cadore (BL) Veneto 46.52 12.54   6.5
17/11/2018 04:15:32 ML 2.1 4 km a ovest di Campotosto (AQ) Abruzzo 42.57 13.33  13.8
17/11/2018 02:51:52 ML 2.2 2 km a est di Locana (TO) Piemonte 45.42 7.48   7.6
17/11/2018 02:05:33 ML 2.0 4 km a sud-est di Gubbio (PG) Umbria 43.32 12.60   9.1
16/11/2018 11:48:53 ML 2.6 Slovenia (SLOVENIA) ----- 46.05 14.13   6.9
16/11/2018 09:05:44 ML 2.4 4 km a est di Norcia (PG) Umbria 42.80 13.14   8.5
16/11/2018 09:00:05 ML 2.2 5 km a est di Norcia (PG) Umbria 42.80 13.15   8.2
16/11/2018 04:26:58 Mwp 6.3 Solomon Is. (Sea) ----- -10.55 163.19  19.5
16/11/2018 02:21:46 ML 2.5 1 km a sud-ovest di Caldarola (MC) Marche 43.13 13.22  15.6
16/11/2018 02:17:11 ML 3.1 3 km a sud di Villapiana (CS) Calabria 39.82 16.47  24.3
15/11/2018 21:02:27 Mwp 6.4 South Georgia & the South Sandwich Is. (Sea) ----- -56.76 -25.57  31.2
15/11/2018 16:17:50 ML 2.3 2 km a ovest di Accumoli (RI) Lazio 42.69 13.23  12.8
15/11/2018 10:02:06 mb 5.0 Costa Occidentale Peloponneso (GRECIA) ----- 37.51 20.73  19.7
15/11/2018 08:35:55 ML 2.5 1 km a ovest di Velletri (RM) Lazio 41.68 12.76  10.7
15/11/2018 06:42:37 ML 2.0 Costa Calabra sud-occidentale (Catanzaro, Vibo Valentia, Reggio di Calabria) Calabria 38.38 15.74  10.8
15/11/2018 06:25:10 ML 2.2 Costa Calabra sud-occidentale (Catanzaro, Vibo Valentia, Reggio di Calabria) Calabria 38.38 15.74  14.1
15/11/2018 02:02:55 ML 3.0 1 km a ovest di Accumoli (RI) Lazio 42.69 13.24  10.8
15/11/2018 00:38:52 ML 2.4 Tirreno Meridionale (MARE) ----- 39.41 15.37 248.3
14/11/2018 22:23:07 ML 2.0 Costa Calabra sud-occidentale (Catanzaro, Vibo Valentia, Reggio di Calabria) Calabria 38.39 15.75  14.6
14/11/2018 22:21:55 Mwp 6.1 Near east coast of Kamchatka Peninsula, Russia (Sea: Russia) ----- 55.51 161.99  71.1
14/11/2018 16:15:03 ML 3.0 Costa Calabra sud-occidentale (Catanzaro, Vibo Valentia, Reggio di Calabria) Calabria 38.38 15.75  11.0
14/11/2018 16:01:02 ML 3.4 Costa Calabra sud-occidentale (Catanzaro, Vibo Valentia, Reggio di Calabria) Calabria 38.38 15.74  10.8
14/11/2018 09:17:18 ML 2.0 France ----- 44.47 6.44  10.8
14/11/2018 05:52:55 ML 2.0 6 km a ovest di Zocca (MO) Emilia Romagna 44.35 10.92  23.5
- traduzioni - freegames - frasi - subnet mask - partners - ipcheck - spazioinizio - pagerank - wi-fi - barzellette - favicon - speedtest - programmone - screenmates -
Locations of visitors to this page